createdAt,value
2024-03-04T00:00:07.828Z,37.87
2024-03-04T00:02:35.306Z,40.10
2024-03-04T00:05:04.442Z,38.83
2024-03-04T00:07:32.048Z,39.60
2024-03-04T00:09:59.566Z,42.03
2024-03-04T00:12:27.020Z,36.13
2024-03-04T00:14:56.853Z,39.97
2024-03-04T00:17:26.154Z,39.40
2024-03-04T00:19:53.666Z,36.87
2024-03-04T00:22:21.098Z,36.77
2024-03-04T00:24:48.495Z,37.53
2024-03-04T00:27:15.983Z,41.23
2024-03-04T00:29:43.480Z,41.53
2024-03-04T00:32:11.981Z,42.23
2024-03-04T00:34:42.973Z,40.40
2024-03-04T00:37:12.164Z,37.80
2024-03-04T00:39:46.782Z,39.30
2024-03-04T00:42:14.240Z,43.30
2024-03-04T00:44:41.684Z,43.40
2024-03-04T00:47:09.119Z,42.00
2024-03-04T00:49:36.692Z,54.70
2024-03-04T00:52:04.258Z,44.30
2024-03-04T00:54:33.293Z,50.30
2024-03-04T00:57:00.745Z,46.53
2024-03-04T00:59:31.099Z,56.63
2024-03-04T01:01:58.627Z,63.20
2024-03-04T01:04:26.321Z,54.80
2024-03-04T01:06:57.228Z,75.47
2024-03-04T01:09:24.763Z,74.67
2024-03-04T01:11:53.961Z,77.63
2024-03-04T01:14:22.440Z,88.47
2024-03-04T01:16:50.198Z,68.30
2024-03-04T01:19:18.853Z,87.50
2024-03-04T01:21:48.088Z,79.47
2024-03-04T01:24:19.664Z,87.40
2024-03-04T01:26:47.118Z,82.20
2024-03-04T01:29:18.222Z,90.60
2024-03-04T01:31:47.098Z,86.47
2024-03-04T01:34:16.237Z,86.33
2024-03-04T01:36:45.559Z,95.10
2024-03-04T01:39:12.953Z,78.33
2024-03-04T01:41:40.409Z,86.70
2024-03-04T01:44:12.272Z,95.80
2024-03-04T01:46:40.002Z,97.10
2024-03-04T01:49:07.489Z,107.53
2024-03-04T01:51:35.743Z,112.07
2024-03-04T01:54:04.569Z,127.80
2024-03-04T01:56:32.682Z,116.50
2024-03-04T01:59:01.582Z,115.67
2024-03-04T02:01:29.402Z,120.30
2024-03-04T02:03:57.083Z,127.50
2024-03-04T02:06:24.581Z,119.30
2024-03-04T02:08:52.753Z,122.13
2024-03-04T02:11:20.324Z,126.90
2024-03-04T02:13:47.940Z,123.23
2024-03-04T02:16:15.407Z,121.70
2024-03-04T02:18:42.869Z,127.57
2024-03-04T02:21:10.789Z,135.93
2024-03-04T02:23:38.232Z,126.80
2024-03-04T02:26:05.685Z,125.47
2024-03-04T02:28:34.287Z,124.07
2024-03-04T02:31:07.231Z,128.23
2024-03-04T02:33:35.106Z,134.93
2024-03-04T02:36:02.616Z,127.47
2024-03-04T02:38:33.181Z,130.03
2024-03-04T02:41:02.293Z,136.70
2024-03-04T02:43:29.749Z,118.63
2024-03-04T02:45:57.210Z,132.53
2024-03-04T02:48:24.627Z,127.67
2024-03-04T02:50:53.052Z,120.70
2024-03-04T02:53:20.482Z,134.63
2024-03-04T02:55:47.913Z,138.20
2024-03-04T02:58:15.322Z,135.97
2024-03-04T03:00:42.764Z,135.07
2024-03-04T03:03:10.204Z,137.67
2024-03-04T03:05:38.405Z,135.30
2024-03-04T03:08:05.997Z,137.23
2024-03-04T03:10:33.552Z,135.97
2024-03-04T03:13:01.153Z,129.20
2024-03-04T03:15:28.606Z,128.87
2024-03-04T03:17:56.185Z,124.77
2024-03-04T03:20:23.581Z,122.37
2024-03-04T03:22:51.015Z,125.20
2024-03-04T03:25:18.500Z,112.07
2024-03-04T03:27:46.342Z,122.03
2024-03-04T03:30:13.992Z,115.53
2024-03-04T03:32:41.750Z,111.23
2024-03-04T03:35:09.616Z,102.90
2024-03-04T03:37:37.336Z,124.70
2024-03-04T03:40:05.227Z,109.10
2024-03-04T03:42:35.486Z,121.60
2024-03-04T03:45:02.997Z,116.40
2024-03-04T03:47:30.929Z,123.30
2024-03-04T03:49:58.442Z,109.23
2024-03-04T03:52:26.132Z,117.77
2024-03-04T03:54:53.626Z,116.73
2024-03-04T03:57:21.130Z,106.47
2024-03-04T03:59:48.586Z,107.73
2024-03-04T04:02:17.984Z,115.73
2024-03-04T04:04:46.878Z,96.97
2024-03-04T04:07:15.818Z,101.73
2024-03-04T04:09:43.211Z,98.50
2024-03-04T04:12:10.646Z,101.07
2024-03-04T04:14:38.105Z,100.27
2024-03-04T04:17:05.643Z,102.73
2024-03-04T04:19:34.804Z,101.43
2024-03-04T04:22:02.269Z,93.77
2024-03-04T04:24:29.687Z,92.80
2024-03-04T04:26:57.143Z,94.50
2024-03-04T04:29:24.631Z,100.27
2024-03-04T04:31:52.526Z,97.37
2024-03-04T04:34:20.120Z,88.77
2024-03-04T04:36:52.143Z,88.73
2024-03-04T04:39:19.578Z,85.17
2024-03-04T04:41:47.489Z,81.50
2024-03-04T04:44:14.908Z,79.07
2024-03-04T04:46:42.384Z,83.20
2024-03-04T04:49:10.000Z,80.63
2024-03-04T04:51:37.431Z,78.60
2024-03-04T04:54:04.884Z,82.23
2024-03-04T04:56:32.348Z,85.37
2024-03-04T04:58:59.796Z,80.47
2024-03-04T05:01:28.926Z,89.63
2024-03-04T05:06:26.094Z,88.47
2024-03-04T05:08:53.614Z,81.23
2024-03-04T05:11:22.666Z,78.07
2024-03-04T05:13:50.350Z,81.47
2024-03-04T05:16:17.806Z,89.03
2024-03-04T05:18:45.245Z,77.63
2024-03-04T05:21:12.751Z,75.23
2024-03-04T05:23:40.301Z,78.67
2024-03-04T05:26:08.061Z,85.73
2024-03-04T05:28:35.584Z,84.77
2024-03-04T05:31:07.466Z,79.60
2024-03-04T05:33:37.823Z,73.17
2024-03-04T05:36:09.708Z,73.13
2024-03-04T05:38:37.320Z,72.17
2024-03-04T05:41:05.849Z,69.27
2024-03-04T05:43:33.461Z,72.83
2024-03-04T05:46:00.966Z,61.90
2024-03-04T05:48:28.379Z,65.73
2024-03-04T05:50:57.465Z,63.50
2024-03-04T05:53:26.529Z,70.20
2024-03-04T05:55:53.960Z,73.60
2024-03-04T05:58:23.347Z,71.00
2024-03-04T06:00:50.900Z,70.87
2024-03-04T06:03:18.339Z,79.33
2024-03-04T06:05:45.808Z,73.00
2024-03-04T06:08:13.252Z,81.20
2024-03-04T06:10:40.820Z,84.13
2024-03-04T06:13:08.491Z,90.83
2024-03-04T06:15:35.916Z,74.27
2024-03-04T06:18:03.514Z,88.60
2024-03-04T06:20:30.921Z,85.27
2024-03-04T06:22:58.945Z,88.03
2024-03-04T06:25:26.621Z,91.33
2024-03-04T06:27:55.761Z,81.57
2024-03-04T06:30:23.457Z,81.33
2024-03-04T06:32:50.975Z,88.87
2024-03-04T06:35:18.539Z,81.10
2024-03-04T06:37:46.118Z,77.93
2024-03-04T06:40:13.704Z,92.20
2024-03-04T06:42:41.107Z,97.63
2024-03-04T06:45:08.905Z,83.07
2024-03-04T06:47:37.490Z,89.70
2024-03-04T06:50:05.427Z,94.20
2024-03-04T06:52:32.901Z,82.87
2024-03-04T06:55:01.415Z,78.40
2024-03-04T06:57:31.750Z,84.67
2024-03-04T06:59:57.864Z,72.40
2024-03-04T07:02:25.282Z,76.10
2024-03-04T07:04:52.804Z,69.77
2024-03-04T07:07:20.272Z,70.37
2024-03-04T07:09:49.638Z,77.37
2024-03-04T07:12:17.071Z,69.23
2024-03-04T07:14:44.539Z,70.00
2024-03-04T07:17:13.635Z,85.60
2024-03-04T07:19:41.091Z,74.27
2024-03-04T07:22:08.529Z,71.43
2024-03-04T07:24:35.927Z,70.27
2024-03-04T07:27:03.400Z,76.60
2024-03-04T07:29:38.056Z,69.63
2024-03-04T07:32:00.308Z,62.50
2024-03-04T07:34:28.007Z,78.23
2024-03-04T07:36:55.525Z,73.50
2024-03-04T07:39:23.957Z,73.33
2024-03-04T07:41:51.711Z,69.87
2024-03-04T07:44:21.861Z,66.30
2024-03-04T07:46:51.061Z,62.97
2024-03-04T07:49:20.378Z,68.27
2024-03-04T07:51:47.777Z,67.20
2024-03-04T07:54:15.360Z,68.77
2024-03-04T07:56:42.820Z,67.60
2024-03-04T07:59:10.396Z,66.33
2024-03-04T08:01:39.452Z,71.47
2024-03-04T08:04:07.559Z,70.00
2024-03-04T08:06:35.668Z,63.67
2024-03-04T08:09:03.126Z,69.90
2024-03-04T08:11:31.340Z,68.00
2024-03-04T08:13:58.753Z,67.13
2024-03-04T08:16:26.190Z,65.70
2024-03-04T08:18:53.609Z,73.63
2024-03-04T08:21:22.238Z,64.03
2024-03-04T08:23:49.686Z,72.30
2024-03-04T08:26:17.460Z,67.33
2024-03-04T08:28:45.557Z,72.00
2024-03-04T08:31:13.139Z,70.10
2024-03-04T08:33:40.616Z,67.27
2024-03-04T08:36:08.982Z,71.87
2024-03-04T08:38:37.034Z,74.80
2024-03-04T08:41:04.639Z,75.00
2024-03-04T08:43:33.131Z,67.00
2024-03-04T08:46:00.666Z,68.87
2024-03-04T08:48:28.133Z,68.57
2024-03-04T08:50:55.766Z,75.87
2024-03-04T08:53:23.974Z,72.53
2024-03-04T08:55:51.885Z,73.07
2024-03-04T08:58:19.508Z,68.80
2024-03-04T09:00:47.056Z,73.10
2024-03-04T09:03:15.504Z,67.93
2024-03-04T09:05:46.126Z,68.20
2024-03-04T09:08:13.624Z,68.73
2024-03-04T09:10:41.308Z,64.83
2024-03-04T09:13:09.142Z,70.90
2024-03-04T09:15:36.578Z,69.30
2024-03-04T09:18:05.791Z,70.93
2024-03-04T09:20:33.204Z,67.03
2024-03-04T09:23:03.528Z,71.27
2024-03-04T09:25:31.086Z,69.43
2024-03-04T09:27:58.594Z,69.07
2024-03-04T09:30:31.942Z,65.43
2024-03-04T09:32:59.396Z,68.40
2024-03-04T09:35:26.774Z,82.53
2024-03-04T09:37:54.220Z,69.13
2024-03-04T09:40:22.439Z,86.53
2024-03-04T09:42:50.078Z,76.80
2024-03-04T09:45:20.741Z,77.33
2024-03-04T09:47:49.699Z,78.33
2024-03-04T09:50:18.088Z,84.83
2024-03-04T09:52:45.636Z,75.50
2024-03-04T09:55:13.131Z,78.37
2024-03-04T09:57:40.930Z,70.67
2024-03-04T10:00:11.578Z,74.00
2024-03-04T10:02:39.089Z,70.40
2024-03-04T10:05:08.136Z,68.27
2024-03-04T10:07:37.236Z,84.50
2024-03-04T10:10:05.507Z,68.30
2024-03-04T10:12:32.929Z,71.43
2024-03-04T10:15:04.895Z,71.50
2024-03-04T10:17:32.497Z,74.90
2024-03-04T10:20:00.283Z,68.63
2024-03-04T10:22:29.301Z,67.47
2024-03-04T10:25:00.939Z,78.17
2024-03-04T10:27:27.418Z,66.00
2024-03-04T10:29:56.418Z,63.97
2024-03-04T10:32:25.515Z,70.60
2024-03-04T10:34:53.004Z,72.20
2024-03-04T10:37:20.446Z,71.40
2024-03-04T10:39:48.654Z,64.17
2024-03-04T10:42:16.115Z,71.37
2024-03-04T10:44:43.748Z,73.23
2024-03-04T10:47:11.379Z,66.03
2024-03-04T10:49:40.017Z,63.53
2024-03-04T10:52:13.530Z,59.80
2024-03-04T10:54:36.758Z,60.20
2024-03-04T10:57:07.004Z,61.57
2024-03-04T10:59:38.911Z,62.83
2024-03-04T11:02:10.699Z,64.13
2024-03-04T11:04:38.484Z,66.17
2024-03-04T11:07:09.110Z,61.77
2024-03-04T11:09:38.053Z,59.77
2024-03-04T11:12:07.252Z,53.80
2024-03-04T11:14:37.890Z,54.47
2024-03-04T11:17:08.606Z,59.07
2024-03-04T11:19:52.781Z,53.20
2024-03-04T11:22:20.792Z,56.47
2024-03-04T11:24:49.001Z,55.97
2024-03-04T11:27:18.772Z,57.50
2024-03-04T11:29:46.980Z,50.80
2024-03-04T11:32:14.514Z,53.53
2024-03-04T11:34:58.396Z,51.80
2024-03-04T11:37:32.252Z,53.67
2024-03-04T11:40:03.273Z,53.47
2024-03-04T11:42:35.119Z,53.43
2024-03-04T11:45:03.251Z,50.97
2024-03-04T11:47:33.997Z,51.47
2024-03-04T11:50:02.762Z,52.90
2024-03-04T11:52:30.218Z,56.67
2024-03-04T11:54:57.961Z,50.43
2024-03-04T11:57:25.576Z,47.17
2024-03-04T11:59:59.554Z,49.97
2024-03-04T12:02:26.990Z,54.53
2024-03-04T12:04:54.757Z,46.00
2024-03-04T12:07:24.492Z,52.90
2024-03-04T12:10:01.751Z,49.73
2024-03-04T12:12:20.657Z,54.67
2024-03-04T12:14:48.076Z,52.00
2024-03-04T12:17:17.299Z,53.73
2024-03-04T12:19:54.489Z,50.17
2024-03-04T12:22:31.944Z,54.00
2024-03-04T12:25:04.921Z,50.47
2024-03-04T12:27:32.698Z,54.57
2024-03-04T12:30:13.863Z,51.63
2024-03-04T12:32:42.356Z,51.90
2024-03-04T12:35:26.921Z,56.70
2024-03-04T12:37:55.708Z,54.90
2024-03-04T12:40:23.609Z,54.20
2024-03-04T12:42:54.645Z,56.53
2024-03-04T12:45:23.527Z,54.57
2024-03-04T12:47:52.960Z,52.83
2024-03-04T12:50:21.335Z,54.80
2024-03-04T12:52:49.825Z,54.63
2024-03-04T12:55:18.118Z,53.07
2024-03-04T12:57:45.992Z,52.93
2024-03-04T13:00:16.293Z,52.97
2024-03-04T13:02:44.274Z,51.90
2024-03-04T13:05:12.366Z,57.50
2024-03-04T13:07:41.226Z,52.57
2024-03-04T13:10:10.458Z,54.30
2024-03-04T13:12:38.806Z,51.33
2024-03-04T13:15:09.991Z,52.33
2024-03-04T13:17:39.052Z,58.50
2024-03-04T13:20:09.218Z,51.10
2024-03-04T13:22:37.361Z,54.27
2024-03-04T13:25:06.527Z,54.00
2024-03-04T13:27:35.732Z,55.17
2024-03-04T13:30:06.642Z,49.47
2024-03-04T13:32:34.506Z,56.40
2024-03-04T13:35:01.991Z,52.47
2024-03-04T13:37:29.843Z,54.67
2024-03-04T13:39:57.626Z,51.97
2024-03-04T13:42:25.138Z,52.73
2024-03-04T13:44:52.559Z,54.97
2024-03-04T13:47:20.213Z,56.77
2024-03-04T13:49:49.200Z,55.63
2024-03-04T13:52:16.817Z,59.57
2024-03-04T13:54:44.311Z,54.47
2024-03-04T13:57:11.853Z,56.77
2024-03-04T13:59:39.265Z,57.50
2024-03-04T14:02:08.430Z,59.03
2024-03-04T14:04:35.913Z,55.93
2024-03-04T14:07:07.224Z,58.20
2024-03-04T14:09:34.758Z,57.83
2024-03-04T14:12:02.218Z,56.73
2024-03-04T14:14:30.126Z,57.90
2024-03-04T14:16:57.647Z,60.70
2024-03-04T14:19:25.123Z,54.90
2024-03-04T14:21:53.230Z,61.70
2024-03-04T14:24:21.219Z,58.43
2024-03-04T14:26:48.723Z,60.33
2024-03-04T14:29:16.161Z,57.57
2024-03-04T14:31:43.668Z,55.10
2024-03-04T14:34:11.208Z,56.13
2024-03-04T14:36:38.620Z,56.27
2024-03-04T14:39:07.706Z,62.13
2024-03-04T14:41:35.136Z,61.87
2024-03-04T14:44:02.621Z,61.63
2024-03-04T14:46:30.662Z,59.10
2024-03-04T14:48:58.121Z,56.57
2024-03-04T14:51:25.586Z,51.03
2024-03-04T14:53:53.007Z,52.70
2024-03-04T14:56:20.464Z,50.33
2024-03-04T14:58:48.051Z,48.37
2024-03-04T15:01:15.714Z,51.40
2024-03-04T15:03:43.758Z,46.33
2024-03-04T15:06:11.295Z,47.63
2024-03-04T15:08:39.525Z,46.33
2024-03-04T15:11:08.937Z,44.57
2024-03-04T15:13:36.445Z,46.87
2024-03-04T15:16:04.000Z,47.83
2024-03-04T15:18:33.008Z,39.53
2024-03-04T15:21:00.465Z,43.40
2024-03-04T15:23:29.301Z,41.27
2024-03-04T15:25:57.338Z,47.30
2024-03-04T15:28:25.205Z,41.30
2024-03-04T15:30:52.941Z,41.70
2024-03-04T15:33:22.710Z,41.23
2024-03-04T15:35:53.702Z,39.67
2024-03-04T15:38:19.950Z,41.77
2024-03-04T15:40:47.424Z,40.30
2024-03-04T15:43:17.683Z,42.23
2024-03-04T15:45:45.869Z,40.10
2024-03-04T15:48:13.286Z,39.27
2024-03-04T15:50:40.800Z,39.50
2024-03-04T15:53:08.298Z,39.97
2024-03-04T15:55:35.832Z,41.27
2024-03-04T15:58:04.903Z,37.73
2024-03-04T16:00:32.384Z,37.00
2024-03-04T16:02:59.889Z,36.63
2024-03-04T16:05:27.290Z,37.80
2024-03-04T16:07:54.764Z,37.10
2024-03-04T16:10:22.437Z,42.00
2024-03-04T16:12:49.926Z,41.60
2024-03-04T16:15:17.445Z,37.57
2024-03-04T16:17:44.903Z,41.47
2024-03-04T16:20:14.082Z,41.37
2024-03-04T16:22:41.632Z,40.50
2024-03-04T16:25:09.150Z,41.77
2024-03-04T16:27:36.722Z,41.00
2024-03-04T16:30:04.225Z,39.93
2024-03-04T16:32:32.752Z,41.27
2024-03-04T16:35:00.172Z,42.50
2024-03-04T16:37:28.072Z,42.87
2024-03-04T16:39:56.185Z,41.10
2024-03-04T16:42:23.672Z,40.70
2024-03-04T16:44:51.761Z,39.53
2024-03-04T16:47:19.683Z,39.77
2024-03-04T16:49:48.535Z,43.93
2024-03-04T16:52:16.032Z,42.80
2024-03-04T16:54:43.437Z,44.70
2024-03-04T16:57:11.174Z,46.33
2024-03-04T16:59:43.182Z,45.30
2024-03-04T17:02:10.710Z,45.13
2024-03-04T17:04:38.148Z,45.47
2024-03-04T17:07:05.594Z,44.40
2024-03-04T17:09:34.487Z,44.87
2024-03-04T17:12:02.387Z,45.37
2024-03-04T17:14:30.514Z,46.30
2024-03-04T17:16:58.134Z,45.27
2024-03-04T17:19:25.631Z,44.27
2024-03-04T17:21:53.026Z,45.63
2024-03-04T17:24:20.499Z,49.17
2024-03-04T17:26:47.910Z,46.77
2024-03-04T17:29:15.413Z,47.57
2024-03-04T17:31:43.073Z,51.30
2024-03-04T17:34:10.547Z,46.37
2024-03-04T17:36:41.227Z,49.73
2024-03-04T17:39:09.164Z,48.80
2024-03-04T17:41:36.593Z,50.07
2024-03-04T17:44:04.039Z,45.67
2024-03-04T17:46:33.169Z,49.33
2024-03-04T17:49:00.616Z,46.97
2024-03-04T17:51:28.062Z,56.80
2024-03-04T17:53:55.505Z,51.93
2024-03-04T17:56:22.937Z,52.90
2024-03-04T17:58:50.391Z,47.80
2024-03-04T18:01:18.927Z,48.43
2024-03-04T18:03:46.422Z,50.53
2024-03-04T18:06:13.907Z,50.97
2024-03-04T18:08:41.719Z,49.50
2024-03-04T18:11:09.421Z,54.23
2024-03-04T18:13:37.104Z,54.50
2024-03-04T18:16:04.669Z,51.13
2024-03-04T18:18:35.060Z,54.50
2024-03-04T18:21:02.755Z,54.13
2024-03-04T18:23:30.349Z,54.17
2024-03-04T18:25:59.462Z,55.57
2024-03-04T18:28:27.171Z,57.70
2024-03-04T18:30:54.614Z,53.53
2024-03-04T18:33:22.328Z,52.93
2024-03-04T18:35:49.846Z,52.03
2024-03-04T18:38:18.037Z,51.93
2024-03-04T18:40:45.593Z,60.20
2024-03-04T18:43:16.250Z,55.77
2024-03-04T18:45:44.132Z,56.90
2024-03-04T18:48:11.651Z,57.63
2024-03-04T18:50:39.513Z,58.37
2024-03-04T18:53:07.034Z,56.63
2024-03-04T18:55:34.600Z,59.83
2024-03-04T18:58:02.407Z,58.77
2024-03-04T19:00:30.922Z,63.10
2024-03-04T19:03:01.239Z,59.03
2024-03-04T19:05:29.348Z,59.23
2024-03-04T19:07:56.924Z,59.33
2024-03-04T19:10:25.859Z,62.27
2024-03-04T19:12:54.464Z,62.67
2024-03-04T19:15:22.030Z,59.07
2024-03-04T19:17:52.505Z,64.00
2024-03-04T19:20:19.929Z,62.33
2024-03-04T19:22:48.118Z,63.47
2024-03-04T19:25:15.615Z,59.30
2024-03-04T19:27:43.119Z,60.83
2024-03-04T19:30:11.036Z,60.23
2024-03-04T19:32:39.651Z,62.00
2024-03-04T19:35:08.838Z,64.17
2024-03-04T19:37:36.416Z,59.47
2024-03-04T19:40:04.973Z,63.80
2024-03-04T19:42:32.394Z,59.80
2024-03-04T19:44:59.904Z,60.77
2024-03-04T19:47:30.526Z,62.37
2024-03-04T19:49:57.032Z,67.73
2024-03-04T19:52:24.505Z,58.37
2024-03-04T19:54:51.949Z,62.23
2024-03-04T19:57:20.906Z,59.93
2024-03-04T19:59:49.795Z,66.37
2024-03-04T20:02:17.284Z,60.30
2024-03-04T20:04:45.868Z,62.67
2024-03-04T20:07:18.525Z,60.30
2024-03-04T20:09:42.416Z,67.73
2024-03-04T20:12:10.554Z,61.47
2024-03-04T20:14:38.078Z,65.80
2024-03-04T20:17:05.868Z,59.90
2024-03-04T20:19:33.401Z,64.40
2024-03-04T20:22:00.788Z,74.10
2024-03-04T20:24:28.342Z,60.30
2024-03-04T20:26:55.980Z,69.23
2024-03-04T20:29:24.761Z,68.33
2024-03-04T20:31:52.985Z,67.87
2024-03-04T20:34:20.982Z,66.20
2024-03-04T20:36:48.570Z,66.60
2024-03-04T20:39:16.274Z,63.13
2024-03-04T20:41:43.830Z,66.77
2024-03-04T20:44:11.349Z,67.00
2024-03-04T20:46:38.831Z,66.20
2024-03-04T20:49:06.239Z,64.03
2024-03-04T20:51:35.332Z,60.33
2024-03-04T20:54:02.769Z,66.03
2024-03-04T20:56:30.232Z,64.03
2024-03-04T20:58:57.850Z,72.17
2024-03-04T21:01:25.423Z,66.17
2024-03-04T21:03:53.345Z,62.47
2024-03-04T21:06:21.012Z,65.20
2024-03-04T21:08:48.537Z,68.87
2024-03-04T21:11:16.787Z,67.10
2024-03-04T21:13:44.379Z,64.47
2024-03-04T21:16:12.041Z,63.80
2024-03-04T21:18:39.469Z,80.20
2024-03-04T21:21:08.082Z,66.73
2024-03-04T21:23:35.590Z,64.30
2024-03-04T21:26:03.073Z,70.33
2024-03-04T21:28:30.490Z,66.70
2024-03-04T21:30:57.912Z,68.53
2024-03-04T21:33:25.369Z,64.57
2024-03-04T21:35:52.973Z,70.50
2024-03-04T21:38:20.472Z,66.53
2024-03-04T21:40:47.966Z,67.57
2024-03-04T21:43:18.203Z,65.73
2024-03-04T21:45:45.632Z,70.90
2024-03-04T21:48:14.030Z,72.63
2024-03-04T21:50:41.636Z,69.97
2024-03-04T21:53:09.414Z,73.47
2024-03-04T21:55:37.644Z,71.67
2024-03-04T21:58:05.706Z,66.47
2024-03-04T22:00:33.309Z,71.37
2024-03-04T22:03:02.367Z,73.60
2024-03-04T22:05:30.322Z,72.03
2024-03-04T22:07:57.933Z,72.37
2024-03-04T22:10:25.604Z,67.77
2024-03-04T22:12:54.821Z,75.33
2024-03-04T22:15:22.274Z,68.17
2024-03-04T22:17:49.746Z,64.90
2024-03-04T22:20:17.248Z,68.70
2024-03-04T22:22:44.703Z,75.77
2024-03-04T22:25:13.692Z,76.10
2024-03-04T22:27:41.338Z,72.80
2024-03-04T22:30:10.029Z,71.20
2024-03-04T22:32:40.224Z,69.83
2024-03-04T22:35:08.272Z,71.33
2024-03-04T22:37:35.795Z,76.30
2024-03-04T22:40:04.836Z,76.17
2024-03-04T22:42:32.277Z,70.87
2024-03-04T22:45:01.393Z,72.50
2024-03-04T22:47:28.876Z,70.03
2024-03-04T22:49:56.423Z,68.53
2024-03-04T22:52:24.438Z,73.57
2024-03-04T22:54:51.962Z,79.20
2024-03-04T22:57:19.439Z,73.47
2024-03-04T22:59:46.881Z,74.13
2024-03-04T23:02:14.371Z,79.30
2024-03-04T23:04:41.930Z,71.83
2024-03-04T23:07:09.320Z,79.10
2024-03-04T23:09:38.295Z,73.60
2024-03-04T23:12:07.571Z,77.43
2024-03-04T23:14:35.039Z,69.87
2024-03-04T23:17:02.572Z,79.10
2024-03-04T23:19:30.113Z,87.23
2024-03-04T23:21:57.493Z,77.40
2024-03-04T23:24:25.004Z,78.10
2024-03-04T23:26:52.632Z,81.73
2024-03-04T23:29:20.094Z,80.47
2024-03-04T23:31:47.539Z,77.10
2024-03-04T23:34:14.999Z,82.33
2024-03-04T23:36:42.413Z,84.27
2024-03-04T23:39:09.863Z,80.47
2024-03-04T23:41:37.275Z,76.00
2024-03-04T23:44:04.799Z,78.07
2024-03-04T23:46:32.483Z,84.20
2024-03-04T23:48:59.975Z,72.53
2024-03-04T23:51:28.244Z,75.73
2024-03-04T23:53:55.709Z,75.50
2024-03-04T23:56:29.198Z,76.03
2024-03-04T23:58:56.783Z,78.80
